This is the latest recevied weather packets stored in our database for station/object M0HPP-13. If no packets are shown the sender has not sent any weather packets the latest 10 day(s).
| Time | Temp. | Humidity | Pressure | Rain* | Wind** | Luminosity | Snow |
|---|---|---|---|---|---|---|---|
| 1777636819 | 17.22° C | 56% | 1016.5 hPa | 0 mm | - | 160 W/m² | - |
| 1777636219 | 17.78° C | 55% | 1016.6 hPa | 0 mm | - | 248 W/m² | - |
| 1777635619 | 17.22° C | 56% | 1016.6 hPa | 0 mm | - | 312 W/m² | - |
| 1777635019 | 16.67° C | 57% | 1016.7 hPa | 0 mm | - | 375 W/m² | - |
| 1777634419 | 16.67° C | 59% | 1016.7 hPa | 0 mm | - | 341 W/m² | - |
| 1777633819 | 16.67° C | 60% | 1016.8 hPa | 0 mm | - | 357 W/m² | - |
| 1777633219 | 16.67° C | 56% | 1016.8 hPa | 0 mm | - | 385 W/m² | - |
| 1777632619 | 16.67° C | 57% | 1016.9 hPa | 0 mm | - | 444 W/m² | - |
| 1777632019 | 17.22° C | 55% | 1017 hPa | 0 mm | - | 248 W/m² | - |
| 1777631419 | 17.22° C | 59% | 1017 hPa | 0 mm | - | 477 W/m² | - |
| 1777630819 | 16.67° C | 63% | 1017 hPa | 0 mm | - | 408 W/m² | - |
| 1777630219 | 16.11° C | 66% | 1017.1 hPa | 0 mm | - | 605 W/m² | - |
| 1777629619 | 15° C | 69% | 1017.1 hPa | 0 mm | - | 505 W/m² | - |
| 1777629019 | 14.44° C | 70% | 1017.1 hPa | 0 mm | - | 346 W/m² | - |
| 1777628419 | 15.56° C | 67% | 1017.3 hPa | 0 mm | - | 209 W/m² | - |
| 1777627819 | 15° C | 68% | 1017.2 hPa | 0 mm | - | 339 W/m² | - |
| 1777627219 | 13.89° C | 71% | 1017.3 hPa | 0 mm | - | 318 W/m² | - |
| 1777626619 | 13.33° C | 74% | 1017.4 hPa | 0 mm | - | 247 W/m² | - |
| 1777626019 | 13.89° C | 70% | 1017.4 hPa | 0 mm | - | 217 W/m² | - |
| 1777625419 | 14.44° C | 68% | 1017.5 hPa | 0 mm | - | 317 W/m² | - |
| 1777624819 | 13.89° C | 70% | 1017.5 hPa | 0 mm | - | 398 W/m² | - |
| 1777624219 | 12.78° C | 71% | 1017.6 hPa | 0 mm | - | 227 W/m² | - |
| 1777623619 | 12.22° C | 71% | 1017.6 hPa | 0 mm | - | 178 W/m² | - |
| 1777623019 | 11.67° C | 72% | 1017.5 hPa | 0 mm | - | 136 W/m² | - |
| 1777622419 | 11.11° C | 76% | 1017.4 hPa | 0 mm | - | 136 W/m² | - |
* Rain latest hour (hover to see other rain measurements)
** Current wind speed in m/s (hover to see current wind gust speed)